Association Sportive et Culturelle de l' Aéroport de Blagnac

Section Vol Moteur

Bienvenue sur le site ASCAB Vol Moteur

LFBO TOULOUSE-BLAGNAC

METAR :
2024/07/13 18:30 LFBO 131830Z AUTO 02005KT 340V050 CAVOK 23/09 Q1013 NOSIG

TAF :
2024/07/13 18:46 TAF LFBO 131700Z 1318/1424 VRB03KT CAVOK BECMG 1407/1409 14012KT BECMG 1413/1415 VRB03KT